createdAt,value
2023-02-03T00:00:30.508Z,87.42
2023-02-03T00:02:57.265Z,88.21
2023-02-03T00:05:24.325Z,88.29
2023-02-03T00:07:51.117Z,88.82
2023-02-03T00:10:21.616Z,88.86
2023-02-03T00:12:55.023Z,89.10
2023-02-03T00:15:23.318Z,89.31
2023-02-03T00:17:50.075Z,89.84
2023-02-03T00:20:16.730Z,90.23
2023-02-03T00:22:43.283Z,90.07
2023-02-03T00:25:10.314Z,90.53
2023-02-03T00:27:37.134Z,91.22
2023-02-03T00:30:04.235Z,91.49
2023-02-03T00:32:31.048Z,91.74
2023-02-03T00:34:57.748Z,91.74
2023-02-03T00:37:24.343Z,91.33
2023-02-03T00:39:50.887Z,91.75
2023-02-03T00:42:17.487Z,91.88
2023-02-03T00:44:44.020Z,91.21
2023-02-03T00:47:10.629Z,90.96
2023-02-03T00:49:37.235Z,91.06
2023-02-03T00:52:04.182Z,90.33
2023-02-03T00:54:32.685Z,90.42
2023-02-03T00:57:00.236Z,89.69
2023-02-03T00:59:26.844Z,89.33
2023-02-03T01:01:53.542Z,89.15
2023-02-03T01:04:20.291Z,89.38
2023-02-03T01:06:46.911Z,90.01
2023-02-03T01:09:13.526Z,90.61
2023-02-03T01:11:40.379Z,90.84
2023-02-03T01:14:07.903Z,91.06
2023-02-03T01:16:38.249Z,91.29
2023-02-03T01:19:05.306Z,91.77
2023-02-03T01:21:32.498Z,92.14
2023-02-03T01:23:59.804Z,91.71
2023-02-03T01:26:26.699Z,92.24
2023-02-03T01:29:01.022Z,92.48
2023-02-03T01:31:30.012Z,92.27
2023-02-03T01:33:57.166Z,92.12
2023-02-03T01:36:25.987Z,92.14
2023-02-03T01:38:52.682Z,92.50
2023-02-03T01:41:24.812Z,92.35
2023-02-03T01:43:54.222Z,92.69
2023-02-03T01:46:46.782Z,92.72
2023-02-03T01:49:38.527Z,92.27
2023-02-03T01:52:05.926Z,92.27
2023-02-03T01:54:38.965Z,92.16
2023-02-03T01:57:13.393Z,92.67
2023-02-03T01:59:40.391Z,92.88
2023-02-03T02:02:08.215Z,93.18
2023-02-03T02:04:59.747Z,93.19
2023-02-03T02:07:26.555Z,93.03
2023-02-03T02:09:54.848Z,93.10
2023-02-03T02:12:21.486Z,93.13
2023-02-03T02:14:48.453Z,93.00
2023-02-03T02:17:33.390Z,93.28
2023-02-03T02:20:15.119Z,93.09
2023-02-03T02:22:56.725Z,92.78
2023-02-03T02:25:40.972Z,92.88
2023-02-03T02:28:24.798Z,93.10
2023-02-03T02:31:13.130Z,93.35
2023-02-03T02:33:46.085Z,93.31
2023-02-03T02:36:31.639Z,92.96
2023-02-03T02:39:02.690Z,92.87
2023-02-03T02:41:44.790Z,93.70
2023-02-03T02:44:14.349Z,93.58
2023-02-03T02:46:48.827Z,93.30
2023-02-03T02:49:29.863Z,93.45
2023-02-03T02:51:59.540Z,93.59
2023-02-03T02:54:30.015Z,94.22
2023-02-03T02:57:01.118Z,94.64
2023-02-03T02:59:29.634Z,94.93
2023-02-03T03:01:56.856Z,94.88
2023-02-03T03:04:29.676Z,95.14
2023-02-03T03:07:06.805Z,95.22
2023-02-03T03:09:44.316Z,95.44
2023-02-03T03:12:17.111Z,95.06
2023-02-03T03:14:50.271Z,95.07
2023-02-03T03:17:26.154Z,95.32
2023-02-03T03:19:56.470Z,95.21
2023-02-03T03:22:28.879Z,94.88
2023-02-03T03:25:01.571Z,95.04
2023-02-03T03:27:36.630Z,95.38
2023-02-03T03:30:10.921Z,95.02
2023-02-03T03:32:38.196Z,95.64
2023-02-03T03:35:06.235Z,95.68
2023-02-03T03:37:43.705Z,95.54
2023-02-03T03:40:50.872Z,95.78
2023-02-03T03:43:25.429Z,96.10
2023-02-03T03:46:01.315Z,96.50
2023-02-03T03:48:47.914Z,96.73
2023-02-03T03:51:20.390Z,96.81
2023-02-03T03:53:47.822Z,97.16
2023-02-03T03:56:21.108Z,97.50
2023-02-03T03:58:50.039Z,97.90
2023-02-03T04:01:17.391Z,98.52
2023-02-03T04:03:50.424Z,99.16
2023-02-03T04:06:17.030Z,99.49
2023-02-03T04:08:43.655Z,100.00
2023-02-03T04:11:10.333Z,100.00
2023-02-03T04:13:36.936Z,100.00
2023-02-03T04:16:03.617Z,100.00
2023-02-03T04:18:30.226Z,100.00
2023-02-03T04:20:56.847Z,100.00
2023-02-03T04:23:23.679Z,100.00
2023-02-03T04:25:50.288Z,100.00
2023-02-03T04:28:17.087Z,100.00
2023-02-03T04:30:43.812Z,100.00
2023-02-03T04:33:10.528Z,100.00
2023-02-03T04:35:37.642Z,100.00
2023-02-03T04:38:04.319Z,100.00
2023-02-03T04:40:30.996Z,100.00
2023-02-03T04:42:58.077Z,100.00
2023-02-03T04:45:24.829Z,100.00
2023-02-03T04:47:54.290Z,100.00
2023-02-03T04:50:21.505Z,100.00
2023-02-03T04:52:48.234Z,100.00
2023-02-03T04:55:14.875Z,100.00
2023-02-03T04:57:41.496Z,100.00
2023-02-03T05:00:08.885Z,100.00
2023-02-03T05:02:35.741Z,100.00
2023-02-03T05:05:02.283Z,100.00
2023-02-03T05:07:28.882Z,100.00
2023-02-03T05:09:55.532Z,100.00
2023-02-03T05:12:22.101Z,100.00
2023-02-03T05:14:48.674Z,100.00
2023-02-03T05:17:15.228Z,100.00
2023-02-03T05:19:41.867Z,100.00
2023-02-03T05:22:08.568Z,100.00
2023-02-03T05:24:35.146Z,100.00
2023-02-03T05:27:01.775Z,100.00
2023-02-03T05:29:28.331Z,100.00
2023-02-03T05:31:54.993Z,100.00
2023-02-03T05:34:21.839Z,100.00
2023-02-03T05:36:48.460Z,100.00
2023-02-03T05:39:15.120Z,100.00
2023-02-03T05:41:53.681Z,100.00
2023-02-03T05:44:26.556Z,100.00
2023-02-03T05:46:55.111Z,100.00
2023-02-03T05:49:23.280Z,100.00
2023-02-03T05:51:51.840Z,100.00
2023-02-03T05:54:18.420Z,100.00
2023-02-03T05:56:45.102Z,100.00
2023-02-03T05:59:11.921Z,100.00
2023-02-03T06:01:38.776Z,100.00
2023-02-03T06:04:05.909Z,100.00
2023-02-03T06:06:36.787Z,100.00
2023-02-03T06:09:08.648Z,100.00
2023-02-03T06:11:36.404Z,100.00
2023-02-03T06:14:03.950Z,100.00
2023-02-03T06:16:30.856Z,100.00
2023-02-03T06:19:02.043Z,100.00
2023-02-03T06:21:29.321Z,100.00
2023-02-03T06:23:56.675Z,100.00
2023-02-03T06:26:25.035Z,100.00
2023-02-03T06:28:51.668Z,100.00
2023-02-03T06:31:18.302Z,100.00
2023-02-03T06:33:45.081Z,100.00
2023-02-03T06:36:11.789Z,100.00
2023-02-03T06:38:38.350Z,100.00
2023-02-03T06:41:05.006Z,100.00
2023-02-03T06:43:31.665Z,100.00
2023-02-03T06:45:58.368Z,100.00
2023-02-03T06:48:25.037Z,100.00
2023-02-03T06:50:51.644Z,100.00
2023-02-03T06:53:18.266Z,100.00
2023-02-03T06:55:45.137Z,100.00
2023-02-03T06:58:11.728Z,100.00
2023-02-03T07:00:38.299Z,100.00
2023-02-03T07:03:05.112Z,100.00
2023-02-03T07:05:31.831Z,100.00
2023-02-03T07:07:59.109Z,100.00
2023-02-03T07:10:25.885Z,100.00
2023-02-03T07:12:52.574Z,100.00
2023-02-03T07:15:19.467Z,100.00
2023-02-03T07:17:54.794Z,100.00
2023-02-03T07:20:22.997Z,100.00
2023-02-03T07:22:57.491Z,100.00
2023-02-03T07:25:25.138Z,100.00
2023-02-03T07:27:51.848Z,100.00
2023-02-03T07:30:18.711Z,100.00
2023-02-03T07:32:52.659Z,100.00
2023-02-03T07:35:19.836Z,100.00
2023-02-03T07:37:46.627Z,100.00
2023-02-03T07:40:14.818Z,100.00
2023-02-03T07:42:45.462Z,100.00
2023-02-03T07:45:13.629Z,100.00
2023-02-03T07:47:41.328Z,100.00
2023-02-03T07:50:08.903Z,100.00
2023-02-03T07:52:35.524Z,100.00
2023-02-03T07:55:02.429Z,100.00
2023-02-03T07:57:29.052Z,100.00
2023-02-03T07:59:55.643Z,100.00
2023-02-03T08:02:22.279Z,100.00
2023-02-03T08:04:49.137Z,100.00
2023-02-03T08:07:15.742Z,100.00
2023-02-03T08:09:42.346Z,100.00
2023-02-03T08:12:09.089Z,100.00
2023-02-03T08:14:35.660Z,100.00
2023-02-03T08:17:02.213Z,100.00
2023-02-03T08:19:29.235Z,100.00
2023-02-03T08:21:56.740Z,100.00
2023-02-03T08:24:23.668Z,100.00
2023-02-03T08:26:50.320Z,100.00
2023-02-03T08:29:17.012Z,100.00
2023-02-03T08:31:43.704Z,100.00
2023-02-03T08:34:10.415Z,100.00
2023-02-03T08:36:39.991Z,100.00
2023-02-03T08:39:07.203Z,100.00
2023-02-03T08:41:34.344Z,100.00
2023-02-03T08:44:01.463Z,100.00
2023-02-03T08:46:28.221Z,100.00
2023-02-03T08:48:57.137Z,100.00
2023-02-03T08:51:24.747Z,100.00
2023-02-03T08:53:52.015Z,100.00
2023-02-03T08:56:18.678Z,100.00
2023-02-03T08:58:45.362Z,100.00
2023-02-03T09:01:15.818Z,100.00
2023-02-03T09:03:42.644Z,99.41
2023-02-03T09:06:11.801Z,99.39
2023-02-03T09:08:38.967Z,98.74
2023-02-03T09:11:10.447Z,97.34
2023-02-03T09:13:37.979Z,96.38
2023-02-03T09:16:06.894Z,96.01
2023-02-03T09:18:34.003Z,94.99
2023-02-03T09:21:02.439Z,91.91
2023-02-03T09:23:29.494Z,91.76
2023-02-03T09:25:56.652Z,89.19
2023-02-03T09:28:23.386Z,88.47
2023-02-03T09:30:50.031Z,87.64
2023-02-03T09:33:16.605Z,87.70
2023-02-03T09:35:51.208Z,87.34
2023-02-03T09:38:17.779Z,87.51
2023-02-03T09:40:46.866Z,86.61
2023-02-03T09:43:21.602Z,85.42
2023-02-03T09:45:48.374Z,84.66
2023-02-03T09:48:21.276Z,85.01
2023-02-03T09:50:50.871Z,83.90
2023-02-03T09:53:29.028Z,83.43
2023-02-03T09:55:56.851Z,81.21
2023-02-03T09:58:24.922Z,80.94
2023-02-03T10:00:56.000Z,80.32
2023-02-03T10:03:54.208Z,79.12
2023-02-03T10:06:45.426Z,78.22
2023-02-03T10:09:50.475Z,78.00
2023-02-03T10:12:47.279Z,76.61
2023-02-03T10:15:22.733Z,76.13
2023-02-03T10:18:05.346Z,76.22
2023-02-03T10:20:33.241Z,74.95
2023-02-03T10:23:09.864Z,75.36
2023-02-03T10:25:41.915Z,75.57
2023-02-03T10:28:18.586Z,74.41
2023-02-03T10:30:57.579Z,74.33
2023-02-03T10:33:29.790Z,74.19
2023-02-03T10:36:19.372Z,73.44
2023-02-03T10:38:48.667Z,73.33
2023-02-03T10:41:17.923Z,71.48
2023-02-03T10:43:52.798Z,71.83
2023-02-03T10:46:31.938Z,72.25
2023-02-03T10:48:58.910Z,72.96
2023-02-03T10:51:41.626Z,71.92
2023-02-03T10:54:26.728Z,71.37
2023-02-03T10:56:55.228Z,71.54
2023-02-03T10:59:31.490Z,71.96
2023-02-03T11:01:58.950Z,71.64
2023-02-03T11:04:32.220Z,71.88
2023-02-03T11:07:07.059Z,71.54
2023-02-03T11:09:37.540Z,71.99
2023-02-03T11:12:14.310Z,71.03
2023-02-03T11:14:44.401Z,71.54
2023-02-03T11:17:29.722Z,71.29
2023-02-03T11:20:16.471Z,70.80
2023-02-03T11:22:44.391Z,71.29
2023-02-03T11:25:29.859Z,71.77
2023-02-03T11:28:03.573Z,71.91
2023-02-03T11:30:30.779Z,72.33
2023-02-03T11:33:02.086Z,72.10
2023-02-03T11:35:31.936Z,72.43
2023-02-03T11:38:02.072Z,73.45
2023-02-03T11:40:39.234Z,74.11
2023-02-03T11:43:16.217Z,75.92
2023-02-03T11:45:53.907Z,76.70
2023-02-03T11:48:23.340Z,77.51
2023-02-03T11:51:22.269Z,77.33
2023-02-03T11:53:57.937Z,79.14
2023-02-03T11:56:31.660Z,78.61
2023-02-03T11:59:21.126Z,79.87
2023-02-03T12:02:06.059Z,79.11
2023-02-03T12:04:44.109Z,79.38
2023-02-03T12:07:22.758Z,77.64
2023-02-03T12:09:49.255Z,77.88
2023-02-03T12:12:27.859Z,77.86
2023-02-03T12:15:05.527Z,76.74
2023-02-03T12:17:40.530Z,79.08
2023-02-03T12:20:33.296Z,79.46
2023-02-03T12:23:15.076Z,81.91
2023-02-03T12:25:47.640Z,84.64
2023-02-03T12:28:33.217Z,87.01
2023-02-03T12:31:09.482Z,88.04
2023-02-03T12:33:44.292Z,89.52
2023-02-03T12:36:33.846Z,92.52
2023-02-03T12:39:09.263Z,94.07
2023-02-03T12:41:42.901Z,94.13
2023-02-03T12:44:19.456Z,94.57
2023-02-03T12:47:12.921Z,94.62
2023-02-03T12:49:48.749Z,91.82
2023-02-03T12:52:27.831Z,90.69
2023-02-03T12:55:06.622Z,91.53
2023-02-03T12:57:40.051Z,88.84
2023-02-03T13:00:27.480Z,87.44
2023-02-03T13:03:06.608Z,86.49
2023-02-03T13:05:42.763Z,85.51
2023-02-03T13:08:25.446Z,86.81
2023-02-03T13:11:07.166Z,85.83
2023-02-03T13:13:39.664Z,84.32
2023-02-03T13:16:08.120Z,84.42
2023-02-03T13:18:38.169Z,84.48
2023-02-03T13:21:05.129Z,83.54
2023-02-03T13:23:32.548Z,83.22
2023-02-03T13:26:30.819Z,81.54
2023-02-03T13:29:00.507Z,81.57
2023-02-03T13:31:57.039Z,81.36
2023-02-03T13:34:39.962Z,80.07
2023-02-03T13:37:06.704Z,78.47
2023-02-03T13:39:33.322Z,78.91
2023-02-03T13:42:24.746Z,78.79
2023-02-03T13:44:57.029Z,79.19
2023-02-03T13:47:29.912Z,79.54
2023-02-03T13:50:03.437Z,80.49
2023-02-03T13:52:47.393Z,82.89
2023-02-03T13:55:31.363Z,86.68
2023-02-03T13:57:58.481Z,89.29
2023-02-03T14:00:43.368Z,87.62
2023-02-03T14:03:25.209Z,87.49
2023-02-03T14:05:57.323Z,87.59
2023-02-03T14:08:29.652Z,89.24
2023-02-03T14:11:33.388Z,91.04
2023-02-03T14:14:09.341Z,92.54
2023-02-03T14:16:39.552Z,94.30
2023-02-03T14:19:33.381Z,95.90
2023-02-03T14:22:06.813Z,99.19
2023-02-03T14:24:38.197Z,100.00
2023-02-03T14:27:16.229Z,100.00
2023-02-03T14:29:43.125Z,100.00
2023-02-03T14:32:12.016Z,100.00
2023-02-03T14:34:42.312Z,100.00
2023-02-03T14:37:30.747Z,100.00
2023-02-03T14:40:21.860Z,100.00
2023-02-03T14:42:49.387Z,100.00
2023-02-03T14:45:26.675Z,100.00
2023-02-03T14:48:00.563Z,100.00
2023-02-03T14:50:53.697Z,100.00
2023-02-03T14:53:23.400Z,100.00
2023-02-03T14:56:25.517Z,100.00
2023-02-03T14:58:59.468Z,100.00
2023-02-03T15:01:49.430Z,100.00
2023-02-03T15:04:16.064Z,100.00
2023-02-03T15:06:49.155Z,100.00
2023-02-03T15:09:48.512Z,100.00
2023-02-03T15:12:22.639Z,100.00
2023-02-03T15:14:49.307Z,100.00
2023-02-03T15:17:24.603Z,100.00
2023-02-03T15:19:51.837Z,100.00
2023-02-03T15:22:22.707Z,100.00
2023-02-03T15:24:52.851Z,100.00
2023-02-03T15:27:25.081Z,99.42
2023-02-03T15:29:52.341Z,99.16
2023-02-03T15:32:23.546Z,97.85
2023-02-03T15:34:51.997Z,96.64
2023-02-03T15:37:38.926Z,96.68
2023-02-03T15:40:19.692Z,96.39
2023-02-03T15:43:07.960Z,96.71
2023-02-03T15:45:45.968Z,94.99
2023-02-03T15:48:22.177Z,94.15
2023-02-03T15:50:57.867Z,93.02
2023-02-03T15:53:47.817Z,92.12
2023-02-03T15:56:30.514Z,91.38
2023-02-03T15:58:58.879Z,90.90
2023-02-03T16:01:28.115Z,90.80
2023-02-03T16:03:57.139Z,90.74
2023-02-03T16:06:44.865Z,89.68
2023-02-03T16:09:32.517Z,89.11
2023-02-03T16:12:16.861Z,88.47
2023-02-03T16:14:44.588Z,88.44
2023-02-03T16:17:39.254Z,87.87
2023-02-03T16:20:11.695Z,86.82
2023-02-03T16:22:39.527Z,85.72
2023-02-03T16:25:20.203Z,85.77
2023-02-03T16:28:25.371Z,86.56
2023-02-03T16:31:14.017Z,86.01
2023-02-03T16:34:06.617Z,85.75
2023-02-03T16:36:52.220Z,85.33
2023-02-03T16:39:37.426Z,84.91
2023-02-03T16:42:34.400Z,84.13
2023-02-03T16:45:19.768Z,84.85
2023-02-03T16:48:05.741Z,85.13
2023-02-03T16:50:53.915Z,84.74
2023-02-03T16:53:23.158Z,85.03
2023-02-03T16:55:51.542Z,87.81
2023-02-03T16:58:18.817Z,87.88
2023-02-03T17:00:48.417Z,89.04
2023-02-03T17:03:18.048Z,89.70
2023-02-03T17:05:47.510Z,89.49
2023-02-03T17:08:15.531Z,87.94
2023-02-03T17:10:44.169Z,88.20
2023-02-03T17:13:14.465Z,87.49
2023-02-03T17:15:43.202Z,86.28
2023-02-03T17:18:10.439Z,84.63
2023-02-03T17:20:37.844Z,83.52
2023-02-03T17:23:04.487Z,81.94
2023-02-03T17:25:33.173Z,82.31
2023-02-03T17:27:59.944Z,81.81
2023-02-03T17:30:28.284Z,80.70
2023-02-03T17:32:59.366Z,80.45
2023-02-03T17:35:26.140Z,80.18
2023-02-03T17:37:54.165Z,80.72
2023-02-03T17:54:06.557Z,86.14
2023-02-03T17:56:35.661Z,83.08
2023-02-03T17:59:04.187Z,81.21
2023-02-03T18:01:31.751Z,79.54
2023-02-03T18:04:03.594Z,77.82
2023-02-03T18:06:33.096Z,78.81
2023-02-03T18:09:01.908Z,78.72
2023-02-03T18:11:30.370Z,78.30
2023-02-03T18:13:57.243Z,78.94
2023-02-03T18:16:27.951Z,78.59
2023-02-03T18:18:56.256Z,77.93
2023-02-03T18:21:24.486Z,78.47
2023-02-03T18:23:51.428Z,77.98
2023-02-03T18:26:19.611Z,77.62
2023-02-03T18:28:46.708Z,78.39
2023-02-03T18:31:15.736Z,81.50
2023-02-03T18:33:44.593Z,84.37
2023-02-03T18:36:12.761Z,86.64
2023-02-03T18:38:41.973Z,89.09
2023-02-03T18:41:18.051Z,90.62
2023-02-03T18:43:45.415Z,90.75
2023-02-03T18:46:16.702Z,90.57
2023-02-03T18:48:43.290Z,91.08
2023-02-03T18:51:11.504Z,91.14
2023-02-03T18:53:38.870Z,93.75
2023-02-03T18:56:07.779Z,95.34
2023-02-03T18:58:34.901Z,94.04
2023-02-03T19:01:01.638Z,92.88
2023-02-03T19:03:28.346Z,91.73
2023-02-03T19:05:55.099Z,91.65
2023-02-03T19:08:21.855Z,92.04
2023-02-03T19:10:55.358Z,89.94
2023-02-03T19:13:22.010Z,90.05
2023-02-03T19:15:51.320Z,88.92
2023-02-03T19:18:17.919Z,88.78
2023-02-03T19:20:44.957Z,87.91
2023-02-03T19:23:12.487Z,87.29
2023-02-03T19:25:39.809Z,87.88
2023-02-03T19:28:14.295Z,87.49
2023-02-03T19:30:44.801Z,87.03
2023-02-03T19:33:12.046Z,86.66
2023-02-03T19:35:38.808Z,86.10
2023-02-03T19:38:05.557Z,85.61
2023-02-03T19:40:32.318Z,84.32
2023-02-03T19:42:59.230Z,84.24
2023-02-03T19:45:27.037Z,83.40
2023-02-03T19:47:53.687Z,84.52
2023-02-03T19:50:20.300Z,83.73
2023-02-03T19:52:48.610Z,83.33
2023-02-03T19:55:16.185Z,83.04
2023-02-03T19:57:42.827Z,82.84
2023-02-03T20:00:10.110Z,83.54
2023-02-03T20:02:42.275Z,82.65
2023-02-03T20:05:09.126Z,82.84
2023-02-03T20:07:35.928Z,82.73
2023-02-03T20:10:02.536Z,82.60
2023-02-03T20:12:30.674Z,83.45
2023-02-03T20:14:57.332Z,83.47
2023-02-03T20:17:24.309Z,84.35
2023-02-03T20:19:50.896Z,84.67
2023-02-03T20:22:17.478Z,84.25
2023-02-03T20:24:44.077Z,84.82
2023-02-03T20:27:10.893Z,85.77
2023-02-03T20:29:37.498Z,86.51
2023-02-03T20:32:06.785Z,86.86
2023-02-03T20:34:33.852Z,88.15
2023-02-03T20:37:01.016Z,88.50
2023-02-03T20:39:28.117Z,88.76
2023-02-03T20:41:54.937Z,89.65
2023-02-03T20:44:21.560Z,89.76
2023-02-03T20:46:48.202Z,90.26
2023-02-03T20:49:18.283Z,90.02
2023-02-03T20:51:50.424Z,90.47
2023-02-03T20:54:21.783Z,90.34
2023-02-03T20:56:49.197Z,90.63
2023-02-03T20:59:17.805Z,91.22
2023-02-03T21:01:45.180Z,92.24
2023-02-03T21:04:35.406Z,92.99
2023-02-03T21:07:12.640Z,93.56
2023-02-03T21:09:40.446Z,94.39
2023-02-03T21:12:13.450Z,94.37
2023-02-03T21:14:43.290Z,94.93
2023-02-03T21:17:25.629Z,95.60
2023-02-03T21:19:53.775Z,96.73
2023-02-03T21:22:30.205Z,97.39
2023-02-03T21:25:03.317Z,98.13
2023-02-03T21:27:31.263Z,98.61
2023-02-03T21:29:59.355Z,99.46
2023-02-03T21:32:34.017Z,99.51
2023-02-03T21:35:00.724Z,100.00
2023-02-03T21:37:41.488Z,100.00
2023-02-03T21:40:18.557Z,100.00
2023-02-03T21:42:46.620Z,100.00
2023-02-03T21:45:22.499Z,100.00
2023-02-03T21:47:51.204Z,100.00
2023-02-03T21:50:28.807Z,100.00
2023-02-03T21:52:56.153Z,100.00
2023-02-03T21:55:22.778Z,99.31
2023-02-03T21:57:49.654Z,99.11
2023-02-03T22:00:43.443Z,98.63
2023-02-03T22:03:20.281Z,97.81
2023-02-03T22:05:47.758Z,96.64
2023-02-03T22:08:19.053Z,95.51
2023-02-03T22:10:45.848Z,93.22
2023-02-03T22:13:13.258Z,91.03
2023-02-03T22:15:41.062Z,88.28
2023-02-03T22:18:07.966Z,87.83
2023-02-03T22:20:35.094Z,86.17
2023-02-03T22:23:01.732Z,85.76
2023-02-03T22:25:28.317Z,85.75
2023-02-03T22:27:54.951Z,85.75
2023-02-03T22:30:21.591Z,85.27
2023-02-03T22:32:48.320Z,84.60
2023-02-03T22:35:14.984Z,83.47
2023-02-03T22:37:41.563Z,83.55
2023-02-03T22:40:09.757Z,83.18
2023-02-03T22:42:36.393Z,82.23
2023-02-03T22:45:03.484Z,82.07
2023-02-03T22:47:30.098Z,81.39
2023-02-03T22:49:56.700Z,80.98
2023-02-03T22:52:23.320Z,81.19
2023-02-03T22:54:50.061Z,81.91
2023-02-03T22:57:16.649Z,81.50
2023-02-03T22:59:43.291Z,81.07
2023-02-03T23:02:09.848Z,80.65
2023-02-03T23:04:36.518Z,79.49
2023-02-03T23:07:03.161Z,79.96
2023-02-03T23:09:29.813Z,79.25
2023-02-03T23:11:56.415Z,79.25
2023-02-03T23:14:23.133Z,78.84
2023-02-03T23:16:49.703Z,78.40
2023-02-03T23:19:16.335Z,78.71
2023-02-03T23:21:42.960Z,78.38
2023-02-03T23:24:09.515Z,77.69
2023-02-03T23:26:36.238Z,77.02
2023-02-03T23:29:02.868Z,76.10
2023-02-03T23:31:29.886Z,76.04
2023-02-03T23:34:15.292Z,75.93
2023-02-03T23:36:41.900Z,75.23
2023-02-03T23:39:08.572Z,75.95
2023-02-03T23:41:35.224Z,74.83
2023-02-03T23:44:01.808Z,74.86
2023-02-03T23:46:28.472Z,74.86
2023-02-03T23:48:55.069Z,74.92
2023-02-03T23:51:21.711Z,73.99
2023-02-03T23:53:48.360Z,74.38
2023-02-03T23:56:14.934Z,74.16
2023-02-03T23:58:41.529Z,72.99
